createdAt,value
2023-05-06T00:00:01.852Z,13.52
2023-05-06T00:01:01.830Z,13.52
2023-05-06T00:02:02.472Z,13.51
2023-05-06T00:03:02.715Z,13.52
2023-05-06T00:04:02.945Z,13.56
2023-05-06T00:05:02.953Z,13.58
2023-05-06T00:06:02.870Z,13.58
2023-05-06T00:07:01.863Z,13.54
2023-05-06T00:08:01.892Z,13.49
2023-05-06T00:09:01.825Z,13.48
2023-05-06T00:10:01.873Z,13.51
2023-05-06T00:11:01.818Z,13.58
2023-05-06T00:12:02.427Z,13.61
2023-05-06T00:13:02.596Z,13.63
2023-05-06T00:14:02.470Z,13.62
2023-05-06T00:15:02.525Z,13.62
2023-05-06T00:16:02.431Z,13.60
2023-05-06T00:17:02.083Z,13.56
2023-05-06T00:18:02.135Z,13.54
2023-05-06T00:19:02.187Z,13.55
2023-05-06T00:20:02.131Z,13.53
2023-05-06T00:21:02.179Z,13.53
2023-05-06T00:22:02.266Z,13.50
2023-05-06T00:23:02.212Z,13.47
2023-05-06T00:24:02.338Z,13.46
2023-05-06T00:25:02.437Z,13.37
2023-05-06T00:26:02.454Z,13.31
2023-05-06T00:27:02.494Z,13.30
2023-05-06T00:28:02.438Z,13.30
2023-05-06T00:29:02.426Z,13.32
2023-05-06T00:30:02.435Z,13.31
2023-05-06T00:31:02.403Z,13.27
2023-05-06T00:32:03.096Z,13.23
2023-05-06T00:33:02.928Z,13.14
2023-05-06T00:34:02.597Z,13.05
2023-05-06T00:35:02.590Z,12.99
2023-05-06T00:36:02.538Z,12.93
2023-05-06T00:37:02.477Z,12.94
2023-05-06T00:38:02.519Z,13.02
2023-05-06T00:39:02.280Z,13.12
2023-05-06T00:40:02.217Z,13.19
2023-05-06T00:41:02.285Z,13.23
2023-05-06T00:42:02.313Z,13.26
2023-05-06T00:43:02.090Z,13.27
2023-05-06T00:44:02.688Z,13.26
2023-05-06T00:45:02.482Z,13.26
2023-05-06T00:46:02.672Z,13.23
2023-05-06T00:47:02.482Z,13.18
2023-05-06T00:48:02.577Z,13.14
2023-05-06T00:49:02.442Z,13.06
2023-05-06T00:50:02.440Z,13.04
2023-05-06T00:51:02.514Z,13.02
2023-05-06T00:52:02.620Z,12.96
2023-05-06T00:53:02.203Z,12.93
2023-05-06T00:54:02.338Z,12.88
2023-05-06T00:55:02.221Z,12.82
2023-05-06T00:56:02.837Z,12.79
2023-05-06T00:57:02.490Z,12.75
2023-05-06T00:58:02.451Z,12.72
2023-05-06T00:59:02.720Z,12.70
2023-05-06T01:00:02.670Z,12.66
2023-05-06T01:01:02.693Z,12.64
2023-05-06T01:02:01.589Z,12.61
2023-05-06T01:03:02.157Z,12.58
2023-05-06T01:04:02.193Z,12.56
2023-05-06T01:05:01.984Z,12.55
2023-05-06T01:06:01.824Z,12.57
2023-05-06T01:07:01.792Z,12.60
2023-05-06T01:08:02.069Z,12.56
2023-05-06T01:09:02.075Z,12.50
2023-05-06T01:10:01.726Z,12.48
2023-05-06T01:11:01.935Z,12.48
2023-05-06T01:12:01.917Z,12.46
2023-05-06T01:13:01.810Z,12.43
2023-05-06T01:14:01.825Z,12.39
2023-05-06T01:15:01.783Z,12.37
2023-05-06T01:16:01.894Z,12.36
2023-05-06T01:17:02.965Z,12.33
2023-05-06T01:18:02.884Z,12.34
2023-05-06T01:19:02.737Z,12.37
2023-05-06T01:20:02.770Z,12.40
2023-05-06T01:21:02.801Z,12.42
2023-05-06T01:22:01.825Z,12.39
2023-05-06T01:23:02.028Z,12.38
2023-05-06T01:24:02.053Z,12.39
2023-05-06T01:25:02.148Z,12.42
2023-05-06T01:26:01.929Z,12.45
2023-05-06T01:27:01.899Z,12.50
2023-05-06T01:28:01.602Z,12.56
2023-05-06T01:29:01.556Z,12.55
2023-05-06T01:30:02.170Z,12.54
2023-05-06T01:31:01.947Z,12.54
2023-05-06T01:32:01.941Z,12.51
2023-05-06T01:33:01.789Z,12.49
2023-05-06T01:34:02.138Z,12.48
2023-05-06T01:35:01.970Z,12.49
2023-05-06T01:36:02.226Z,12.47
2023-05-06T01:37:01.937Z,12.48
2023-05-06T01:38:01.900Z,12.44
2023-05-06T01:39:01.934Z,12.41
2023-05-06T01:42:02.839Z,12.29
2023-05-06T01:43:02.249Z,12.31
2023-05-06T01:44:02.878Z,12.26
2023-05-06T01:45:02.631Z,12.23
2023-05-06T01:46:02.686Z,12.22
2023-05-06T01:47:01.851Z,12.24
2023-05-06T01:48:02.259Z,12.28
2023-05-06T01:49:02.348Z,12.34
2023-05-06T01:50:02.328Z,12.39
2023-05-06T01:51:02.374Z,12.37
2023-05-06T01:52:02.950Z,12.34
2023-05-06T01:53:02.459Z,12.36
2023-05-06T01:54:02.348Z,12.36
2023-05-06T01:55:02.424Z,12.34
2023-05-06T01:56:02.489Z,12.35
2023-05-06T01:57:01.582Z,12.38
2023-05-06T01:58:02.112Z,12.39
2023-05-06T01:59:02.031Z,12.36
2023-05-06T02:00:02.179Z,12.36
2023-05-06T02:01:01.939Z,12.33
2023-05-06T02:02:02.073Z,12.29
2023-05-06T02:03:02.076Z,12.24
2023-05-06T02:04:02.297Z,12.21
2023-05-06T02:05:02.573Z,12.16
2023-05-06T02:06:02.237Z,12.11
2023-05-06T02:07:02.351Z,12.08
2023-05-06T02:08:02.564Z,12.04
2023-05-06T02:09:02.784Z,12.01
2023-05-06T02:10:02.491Z,11.97
2023-05-06T02:11:02.432Z,11.95
2023-05-06T02:12:02.475Z,11.94
2023-05-06T02:13:03.140Z,11.95
2023-05-06T02:14:02.956Z,11.96
2023-05-06T02:15:02.761Z,11.99
2023-05-06T02:16:02.764Z,12.00
2023-05-06T02:17:02.654Z,12.01
2023-05-06T02:18:02.802Z,12.00
2023-05-06T02:19:02.641Z,11.97
2023-05-06T02:20:03.307Z,11.91
2023-05-06T02:21:03.029Z,11.89
2023-05-06T02:22:02.154Z,11.88
2023-05-06T02:23:02.148Z,11.87
2023-05-06T02:24:02.303Z,11.82
2023-05-06T02:25:02.171Z,11.86
2023-05-06T02:26:02.198Z,11.91
2023-05-06T02:27:02.300Z,11.95
2023-05-06T02:28:02.334Z,11.96
2023-05-06T02:29:02.573Z,11.91
2023-05-06T02:30:02.563Z,11.89
2023-05-06T02:31:02.540Z,11.86
2023-05-06T02:32:02.594Z,11.80
2023-05-06T02:33:02.615Z,11.77
2023-05-06T02:34:02.657Z,11.76
2023-05-06T02:35:02.847Z,11.69
2023-05-06T02:36:02.838Z,11.65
2023-05-06T02:37:03.043Z,11.64
2023-05-06T02:38:02.777Z,11.60
2023-05-06T02:39:03.018Z,11.60
2023-05-06T02:40:02.902Z,11.65
2023-05-06T02:41:02.883Z,11.66
2023-05-06T02:42:03.087Z,11.64
2023-05-06T02:43:03.117Z,11.59
2023-05-06T02:44:03.072Z,11.56
2023-05-06T02:45:03.072Z,11.54
2023-05-06T02:46:03.186Z,11.53
2023-05-06T02:47:02.139Z,11.56
2023-05-06T02:48:02.538Z,11.57
2023-05-06T02:49:02.573Z,11.57
2023-05-06T02:50:02.205Z,11.55
2023-05-06T02:51:02.275Z,11.56
2023-05-06T02:52:02.191Z,11.55
2023-05-06T02:53:02.185Z,11.51
2023-05-06T02:54:02.693Z,11.46
2023-05-06T02:55:02.374Z,11.42
2023-05-06T02:56:02.453Z,11.40
2023-05-06T02:57:02.277Z,11.44
2023-05-06T02:58:02.294Z,11.49
2023-05-06T02:59:02.352Z,11.51
2023-05-06T03:00:02.348Z,11.45
2023-05-06T03:01:02.518Z,11.39
2023-05-06T03:02:02.547Z,11.36
2023-05-06T03:03:02.549Z,11.38
2023-05-06T03:04:02.554Z,11.42
2023-05-06T03:05:02.809Z,11.49
2023-05-06T03:06:02.898Z,11.50
2023-05-06T03:07:02.972Z,11.56
2023-05-06T03:08:02.945Z,11.67
2023-05-06T03:09:03.048Z,11.70
2023-05-06T03:10:03.047Z,11.75
2023-05-06T03:11:02.995Z,11.78
2023-05-06T03:12:03.351Z,11.79
2023-05-06T03:13:03.642Z,11.70
2023-05-06T03:14:02.900Z,11.61
2023-05-06T03:15:02.882Z,11.53
2023-05-06T03:16:02.996Z,11.54
2023-05-06T03:17:02.725Z,11.47
2023-05-06T03:18:03.040Z,11.48
2023-05-06T03:19:03.074Z,11.50
2023-05-06T03:20:03.031Z,11.45
2023-05-06T03:21:03.104Z,11.44
2023-05-06T03:22:02.885Z,11.39
2023-05-06T03:23:02.927Z,11.36
2023-05-06T03:24:03.059Z,11.32
2023-05-06T03:25:03.176Z,11.31
2023-05-06T03:26:02.883Z,11.41
2023-05-06T03:27:02.472Z,11.49
2023-05-06T03:28:02.800Z,11.50
2023-05-06T03:29:02.292Z,11.53
2023-05-06T03:30:02.868Z,11.51
2023-05-06T03:31:02.623Z,11.43
2023-05-06T03:32:02.712Z,11.40
2023-05-06T03:33:02.841Z,11.43
2023-05-06T03:34:03.085Z,11.43
2023-05-06T03:35:02.990Z,11.41
2023-05-06T03:36:03.010Z,11.31
2023-05-06T03:37:03.132Z,11.21
2023-05-06T03:38:03.177Z,11.16
2023-05-06T03:39:03.192Z,11.12
2023-05-06T03:40:03.167Z,11.12
2023-05-06T03:41:03.285Z,11.10
2023-05-06T03:42:03.296Z,11.07
2023-05-06T03:43:03.413Z,11.06
2023-05-06T03:44:03.542Z,11.02
2023-05-06T03:45:03.625Z,11.00
2023-05-06T03:46:03.663Z,10.99
2023-05-06T03:47:02.772Z,11.03
2023-05-06T03:48:02.802Z,11.06
2023-05-06T03:49:02.604Z,11.04
2023-05-06T03:50:02.843Z,11.03
2023-05-06T03:51:02.563Z,11.02
2023-05-06T03:52:02.727Z,11.01
2023-05-06T03:53:02.574Z,10.95
2023-05-06T03:54:02.670Z,10.93
2023-05-06T03:55:02.704Z,10.91
2023-05-06T03:56:02.465Z,10.89
2023-05-06T03:57:03.204Z,10.93
2023-05-06T03:58:03.274Z,11.01
2023-05-06T03:59:03.312Z,11.04
2023-05-06T04:00:03.416Z,11.13
2023-05-06T04:01:02.968Z,11.15
2023-05-06T04:02:02.980Z,11.11
2023-05-06T04:03:02.961Z,11.06
2023-05-06T04:04:02.620Z,10.99
2023-05-06T04:05:02.729Z,11.04
2023-05-06T04:06:02.764Z,11.07
2023-05-06T04:07:02.941Z,11.10
2023-05-06T04:08:03.027Z,11.06
2023-05-06T04:09:03.147Z,11.10
2023-05-06T04:10:02.961Z,11.18
2023-05-06T04:11:03.100Z,11.27
2023-05-06T04:12:02.886Z,11.28
2023-05-06T04:13:02.972Z,11.22
2023-05-06T04:14:03.038Z,11.11
2023-05-06T04:15:03.049Z,11.02
2023-05-06T04:16:03.487Z,10.97
2023-05-06T04:17:03.297Z,10.96
2023-05-06T04:18:02.948Z,10.95
2023-05-06T04:19:04.399Z,10.96
2023-05-06T04:20:02.963Z,10.89
2023-05-06T04:21:03.033Z,10.82
2023-05-06T04:22:02.854Z,10.76
2023-05-06T04:23:02.881Z,10.68
2023-05-06T04:24:02.970Z,10.64
2023-05-06T04:25:02.699Z,10.66
2023-05-06T04:26:02.963Z,10.65
2023-05-06T04:27:03.056Z,10.64
2023-05-06T04:28:02.819Z,10.65
2023-05-06T04:29:02.897Z,10.66
2023-05-06T04:30:02.923Z,10.67
2023-05-06T04:31:03.112Z,10.68
2023-05-06T04:32:02.854Z,10.66
2023-05-06T04:33:02.527Z,10.65
2023-05-06T04:34:02.371Z,10.65
2023-05-06T04:35:02.408Z,10.63
2023-05-06T04:36:02.465Z,10.67
2023-05-06T04:37:03.261Z,10.75
2023-05-06T04:38:03.366Z,10.76
2023-05-06T04:39:03.268Z,10.74
2023-05-06T04:40:03.009Z,10.74
2023-05-06T04:41:03.191Z,10.72
2023-05-06T04:42:03.450Z,10.70
2023-05-06T04:43:03.501Z,10.69
2023-05-06T04:44:03.568Z,10.67
2023-05-06T04:45:03.514Z,10.63
2023-05-06T04:46:03.458Z,10.63
2023-05-06T04:47:02.345Z,10.68
2023-05-06T04:48:02.677Z,10.70
2023-05-06T04:49:02.725Z,10.66
2023-05-06T04:50:02.715Z,10.59
2023-05-06T04:51:02.297Z,10.54
2023-05-06T04:52:02.710Z,10.51
2023-05-06T04:53:02.416Z,10.52
2023-05-06T04:54:02.676Z,10.50
2023-05-06T04:55:02.382Z,10.53
2023-05-06T04:56:02.512Z,10.54
2023-05-06T04:57:02.753Z,10.54
2023-05-06T04:58:02.481Z,10.58
2023-05-06T04:59:02.162Z,10.69
2023-05-06T05:00:02.216Z,10.76
2023-05-06T05:01:02.654Z,10.82
2023-05-06T05:02:02.746Z,10.88
2023-05-06T05:03:02.993Z,10.88
2023-05-06T05:04:02.526Z,10.88
2023-05-06T05:05:02.621Z,10.87
2023-05-06T05:06:02.696Z,10.84
2023-05-06T05:07:02.588Z,10.84
2023-05-06T05:08:02.448Z,10.81
2023-05-06T05:09:02.569Z,10.79
2023-05-06T05:10:02.439Z,10.82
2023-05-06T05:11:01.983Z,10.88
2023-05-06T05:12:02.672Z,11.01
2023-05-06T05:13:02.798Z,11.12
2023-05-06T05:14:02.745Z,11.16
2023-05-06T05:15:02.663Z,11.19
2023-05-06T05:16:02.439Z,11.24
2023-05-06T05:17:02.365Z,11.28
2023-05-06T05:18:01.783Z,11.37
2023-05-06T05:19:03.616Z,11.47
2023-05-06T05:20:02.064Z,11.53
2023-05-06T05:21:02.225Z,11.56
2023-05-06T05:22:02.814Z,11.59
2023-05-06T05:23:02.709Z,11.61
2023-05-06T05:24:02.860Z,11.63
2023-05-06T05:25:02.795Z,11.64
2023-05-06T05:26:02.795Z,11.67
2023-05-06T05:27:02.325Z,11.70
2023-05-06T05:28:02.198Z,11.71
2023-05-06T05:29:02.263Z,11.75
2023-05-06T05:30:02.227Z,11.80
2023-05-06T05:31:02.011Z,11.87
2023-05-06T05:32:02.691Z,11.91
2023-05-06T05:33:02.576Z,11.97
2023-05-06T05:34:02.482Z,11.99
2023-05-06T05:35:02.629Z,12.01
2023-05-06T05:36:02.574Z,12.07
2023-05-06T05:37:01.663Z,12.13
2023-05-06T05:38:01.793Z,12.11
2023-05-06T05:39:02.047Z,12.15
2023-05-06T05:40:02.135Z,12.17
2023-05-06T05:41:01.625Z,12.22
2023-05-06T05:42:01.713Z,12.28
2023-05-06T05:43:01.825Z,12.28
2023-05-06T05:44:01.885Z,12.33
2023-05-06T05:45:02.088Z,12.37
2023-05-06T05:46:02.182Z,12.39
2023-05-06T05:47:01.757Z,12.37
2023-05-06T05:48:01.886Z,12.42
2023-05-06T05:49:02.093Z,12.45
2023-05-06T05:50:02.257Z,12.49
2023-05-06T05:51:01.989Z,12.53
2023-05-06T05:52:02.187Z,12.59
2023-05-06T05:53:02.329Z,12.65
2023-05-06T05:54:02.396Z,12.68
2023-05-06T05:55:02.483Z,12.73
2023-05-06T05:56:02.581Z,12.77
2023-05-06T05:57:01.800Z,12.78
2023-05-06T05:58:01.836Z,12.82
2023-05-06T05:59:01.801Z,12.88
2023-05-06T06:00:01.916Z,12.90
2023-05-06T06:01:02.136Z,12.94
2023-05-06T06:02:02.300Z,13.01
2023-05-06T06:03:02.443Z,13.05
2023-05-06T06:04:02.678Z,13.11
2023-05-06T06:05:02.732Z,13.11
2023-05-06T06:06:02.808Z,13.11
2023-05-06T06:07:02.610Z,13.18
2023-05-06T06:08:03.881Z,13.27
2023-05-06T06:09:02.965Z,13.34
2023-05-06T06:10:03.166Z,13.40
2023-05-06T06:11:02.907Z,13.42
2023-05-06T06:12:02.167Z,13.44
2023-05-06T06:13:02.359Z,13.47
2023-05-06T06:14:02.527Z,13.49
2023-05-06T06:15:02.097Z,13.53
2023-05-06T06:16:02.253Z,13.52
2023-05-06T06:17:02.199Z,13.54
2023-05-06T06:18:02.576Z,13.56
2023-05-06T06:19:02.599Z,13.58
2023-05-06T06:20:02.033Z,13.61
2023-05-06T06:21:02.185Z,13.60
2023-05-06T06:22:02.367Z,13.63
2023-05-06T06:23:02.545Z,13.60
2023-05-06T06:24:02.764Z,13.58
2023-05-06T06:25:02.206Z,13.58
2023-05-06T06:26:02.327Z,13.60
2023-05-06T06:27:02.408Z,13.65
2023-05-06T06:28:02.604Z,13.70
2023-05-06T06:29:02.731Z,13.69
2023-05-06T06:30:02.918Z,13.70
2023-05-06T06:31:02.819Z,13.68
2023-05-06T06:32:02.933Z,13.70
2023-05-06T06:33:03.085Z,13.72
2023-05-06T06:34:03.051Z,13.75
2023-05-06T06:35:03.125Z,13.76
2023-05-06T06:36:03.265Z,13.83
2023-05-06T06:37:02.482Z,13.88
2023-05-06T06:38:02.727Z,13.88
2023-05-06T06:39:02.662Z,13.88
2023-05-06T06:40:02.778Z,13.92
2023-05-06T06:41:02.245Z,13.90
2023-05-06T06:42:02.028Z,13.88
2023-05-06T06:43:02.281Z,13.89
2023-05-06T06:44:02.054Z,13.87
2023-05-06T06:45:02.338Z,13.84
2023-05-06T06:46:01.874Z,13.85
2023-05-06T06:47:02.578Z,13.90
2023-05-06T06:48:02.819Z,14.00
2023-05-06T06:49:02.961Z,14.04
2023-05-06T06:50:02.935Z,14.05
2023-05-06T06:51:02.868Z,14.10
2023-05-06T06:52:02.128Z,14.17
2023-05-06T06:53:04.803Z,14.24
2023-05-06T06:54:01.898Z,14.32
2023-05-06T06:55:02.059Z,14.39
2023-05-06T06:56:02.272Z,14.47
2023-05-06T06:57:02.491Z,14.54
2023-05-06T06:58:02.674Z,14.61
2023-05-06T06:59:02.145Z,14.70
2023-05-06T07:00:02.352Z,14.80
2023-05-06T07:01:02.746Z,14.90
2023-05-06T07:02:02.735Z,15.02
2023-05-06T07:03:03.103Z,15.18
2023-05-06T07:04:04.288Z,15.33
2023-05-06T07:05:03.073Z,15.44
2023-05-06T07:06:03.013Z,15.53
2023-05-06T07:07:02.991Z,15.64
2023-05-06T07:08:03.239Z,15.73
2023-05-06T07:09:03.057Z,15.85
2023-05-06T07:10:03.186Z,15.95
2023-05-06T07:11:03.257Z,15.95
2023-05-06T07:12:02.733Z,15.95
2023-05-06T07:13:02.431Z,15.96
2023-05-06T07:14:02.668Z,15.90
2023-05-06T07:15:02.258Z,15.87
2023-05-06T07:16:02.527Z,15.94
2023-05-06T07:17:02.741Z,15.93
2023-05-06T07:18:02.949Z,15.86
2023-05-06T07:19:02.815Z,15.78
2023-05-06T07:20:02.922Z,15.75
2023-05-06T07:21:02.909Z,15.74
2023-05-06T07:22:02.880Z,15.76
2023-05-06T07:23:02.923Z,15.82
2023-05-06T07:24:02.701Z,15.94
2023-05-06T07:25:02.885Z,16.00
2023-05-06T07:26:03.018Z,16.05
2023-05-06T07:27:03.157Z,16.12
2023-05-06T07:28:03.425Z,16.25
2023-05-06T07:29:03.335Z,16.34
2023-05-06T07:30:03.278Z,16.44
2023-05-06T07:31:03.474Z,16.58
2023-05-06T07:32:03.501Z,16.68
2023-05-06T07:33:03.778Z,16.76
2023-05-06T07:34:03.685Z,16.89
2023-05-06T07:35:03.342Z,16.96
2023-05-06T07:36:03.257Z,16.99
2023-05-06T07:37:03.115Z,17.01
2023-05-06T07:38:02.864Z,17.14
2023-05-06T07:39:03.204Z,17.26
2023-05-06T07:40:03.327Z,17.41
2023-05-06T07:41:03.285Z,17.48
2023-05-06T07:42:03.487Z,17.55
2023-05-06T07:43:03.690Z,17.66
2023-05-06T07:44:03.719Z,17.76
2023-05-06T07:45:03.503Z,17.88
2023-05-06T07:46:03.540Z,18.05
2023-05-06T07:47:02.820Z,18.19
2023-05-06T07:48:02.999Z,18.34
2023-05-06T07:49:02.976Z,18.49
2023-05-06T07:50:02.962Z,18.62
2023-05-06T07:51:02.816Z,18.69
2023-05-06T07:52:03.082Z,18.68
2023-05-06T07:53:03.271Z,18.77
2023-05-06T07:54:03.134Z,18.85
2023-05-06T07:55:02.836Z,18.87
2023-05-06T07:56:03.022Z,18.84
2023-05-06T07:57:03.176Z,18.83
2023-05-06T07:58:02.910Z,18.83
2023-05-06T07:59:02.809Z,18.87
2023-05-06T08:00:03.021Z,18.95
2023-05-06T08:01:02.967Z,19.07
2023-05-06T08:02:02.811Z,19.18
2023-05-06T08:03:02.851Z,19.26
2023-05-06T08:04:02.975Z,19.44
2023-05-06T08:05:02.310Z,19.55
2023-05-06T08:06:02.793Z,19.72
2023-05-06T08:07:03.064Z,19.84
2023-05-06T08:08:02.748Z,19.94
2023-05-06T08:09:02.798Z,20.03
2023-05-06T08:10:02.872Z,20.17
2023-05-06T08:11:03.195Z,20.35
2023-05-06T08:12:03.240Z,20.49
2023-05-06T08:13:02.848Z,20.58
2023-05-06T08:14:02.744Z,20.63
2023-05-06T08:15:02.823Z,20.66
2023-05-06T08:16:03.006Z,20.63
2023-05-06T08:17:02.734Z,20.70
2023-05-06T08:18:10.379Z,20.76
2023-05-06T08:19:02.805Z,20.82
2023-05-06T08:20:02.580Z,20.93
2023-05-06T08:21:02.428Z,21.10
2023-05-06T08:22:03.296Z,21.17
2023-05-06T08:23:03.286Z,21.19
2023-05-06T08:24:03.287Z,21.31
2023-05-06T08:25:03.167Z,21.35
2023-05-06T08:26:03.368Z,21.33
2023-05-06T08:27:02.982Z,21.21
2023-05-06T08:28:02.696Z,21.22
2023-05-06T08:29:02.904Z,21.36
2023-05-06T08:30:02.750Z,21.42
2023-05-06T08:31:02.847Z,21.51
2023-05-06T08:32:03.302Z,21.47
2023-05-06T08:33:03.099Z,21.44
2023-05-06T08:34:02.774Z,21.42
2023-05-06T08:35:03.029Z,21.42
2023-05-06T08:36:02.630Z,21.43
2023-05-06T08:37:03.400Z,21.40
2023-05-06T08:38:02.950Z,21.31
2023-05-06T08:39:02.968Z,21.26
2023-05-06T08:40:03.140Z,21.26
2023-05-06T08:41:03.138Z,21.27
2023-05-06T08:42:02.494Z,21.21
2023-05-06T08:43:02.632Z,21.18
2023-05-06T08:44:02.774Z,21.20
2023-05-06T08:45:03.010Z,21.36
2023-05-06T08:46:03.192Z,21.47
2023-05-06T08:47:03.173Z,21.57
2023-05-06T08:48:02.541Z,21.69
2023-05-06T08:49:02.781Z,21.71
2023-05-06T08:50:02.629Z,21.73
2023-05-06T08:51:02.680Z,21.65
2023-05-06T08:52:02.871Z,21.64
2023-05-06T08:53:02.362Z,21.78
2023-05-06T08:54:02.549Z,22.02
2023-05-06T08:55:02.081Z,22.14
2023-05-06T08:56:02.291Z,22.16
2023-05-06T08:57:02.678Z,22.13
2023-05-06T08:58:02.322Z,22.12
2023-05-06T08:59:02.439Z,22.14
2023-05-06T09:00:02.807Z,22.20
2023-05-06T09:01:02.813Z,22.19
2023-05-06T09:02:02.689Z,22.17
2023-05-06T09:03:02.811Z,22.22
2023-05-06T09:04:02.971Z,22.36
2023-05-06T09:05:02.743Z,22.47
2023-05-06T09:06:02.920Z,22.52
2023-05-06T09:07:02.536Z,22.55
2023-05-06T09:08:02.421Z,22.60
2023-05-06T09:09:02.596Z,22.76
2023-05-06T09:10:02.529Z,22.94
2023-05-06T09:11:02.392Z,23.13
2023-05-06T09:12:02.279Z,23.18
2023-05-06T09:13:02.313Z,23.32
2023-05-06T09:14:01.963Z,23.37
2023-05-06T09:15:02.221Z,23.43
2023-05-06T09:16:01.886Z,23.37
2023-05-06T09:17:01.956Z,23.36
2023-05-06T09:18:02.899Z,23.31
2023-05-06T09:19:02.525Z,23.30
2023-05-06T09:20:02.787Z,23.27
2023-05-06T09:21:02.949Z,23.19
2023-05-06T09:22:02.603Z,23.13
2023-05-06T09:23:02.426Z,23.15
2023-05-06T09:24:02.522Z,23.16
2023-05-06T09:25:02.217Z,23.19
2023-05-06T09:26:02.066Z,23.22
2023-05-06T09:27:02.155Z,23.37
2023-05-06T09:28:02.790Z,23.43
2023-05-06T09:29:02.363Z,23.37
2023-05-06T09:30:02.531Z,23.32
2023-05-06T09:31:02.883Z,23.35
2023-05-06T09:32:02.942Z,23.63
2023-05-06T09:33:02.030Z,23.90
2023-05-06T09:34:02.204Z,24.12
2023-05-06T09:35:02.457Z,24.30
2023-05-06T09:36:02.247Z,24.50
2023-05-06T09:37:02.277Z,24.71
2023-05-06T09:38:04.282Z,24.89
2023-05-06T09:39:02.998Z,25.06
2023-05-06T09:40:02.504Z,25.13
2023-05-06T09:41:02.612Z,25.09
2023-05-06T09:42:02.823Z,25.19
2023-05-06T09:43:02.127Z,25.07
2023-05-06T09:44:02.194Z,24.95
2023-05-06T09:45:02.476Z,24.76
2023-05-06T09:46:02.627Z,24.60
2023-05-06T09:47:02.582Z,24.54
2023-05-06T09:48:02.883Z,24.57
2023-05-06T09:49:02.959Z,24.53
2023-05-06T09:50:03.093Z,24.50
2023-05-06T09:51:03.208Z,24.67
2023-05-06T09:52:02.854Z,24.88
2023-05-06T09:53:02.614Z,24.88
2023-05-06T09:54:02.261Z,24.85
2023-05-06T09:55:01.958Z,24.67
2023-05-06T09:56:02.481Z,24.57
2023-05-06T09:57:02.618Z,24.66
2023-05-06T09:58:02.578Z,24.68
2023-05-06T09:59:02.871Z,24.64
2023-05-06T10:00:02.828Z,24.59
2023-05-06T10:01:03.139Z,24.52
2023-05-06T10:02:03.124Z,24.47
2023-05-06T10:03:02.454Z,24.45
2023-05-06T10:04:02.788Z,24.37
2023-05-06T10:05:02.812Z,24.38
2023-05-06T10:06:02.245Z,24.50
2023-05-06T10:07:02.345Z,24.58
2023-05-06T10:08:02.655Z,24.61
2023-05-06T10:09:02.494Z,24.62
2023-05-06T10:10:02.531Z,24.61
2023-05-06T10:11:02.678Z,24.62
2023-05-06T10:12:02.498Z,24.70
2023-05-06T10:14:27.777Z,24.98
2023-05-06T10:15:02.004Z,25.14
2023-05-06T10:16:02.240Z,25.32
2023-05-06T10:17:02.467Z,25.43
2023-05-06T10:18:02.475Z,25.45
2023-05-06T10:19:02.546Z,25.47
2023-05-06T10:20:02.681Z,25.51
2023-05-06T10:21:02.197Z,25.51
2023-05-06T10:22:03.858Z,25.48
2023-05-06T10:23:02.478Z,25.60
2023-05-06T10:24:03.067Z,25.68
2023-05-06T10:25:02.989Z,25.70
2023-05-06T10:26:02.960Z,25.60
2023-05-06T10:27:02.602Z,25.58
2023-05-06T10:31:03.144Z,25.47
2023-05-06T10:32:03.005Z,25.45
2023-05-06T10:33:02.525Z,25.35
2023-05-06T10:34:02.257Z,25.30
2023-05-06T10:35:02.511Z,25.27
2023-05-06T10:36:02.022Z,25.43
2023-05-06T10:37:02.100Z,25.72
2023-05-06T10:38:03.317Z,25.86
2023-05-06T10:39:03.260Z,26.00
2023-05-06T10:40:02.993Z,26.09
2023-05-06T10:41:03.286Z,25.89
2023-05-06T10:42:02.842Z,25.73
2023-05-06T10:43:02.189Z,25.70
2023-05-06T10:44:02.387Z,25.71
2023-05-06T10:45:02.409Z,25.54
2023-05-06T10:46:02.418Z,25.35
2023-05-06T10:47:01.829Z,25.15
2023-05-06T10:48:02.779Z,25.14
2023-05-06T10:49:02.981Z,25.22
2023-05-06T10:50:02.880Z,25.15
2023-05-06T10:51:02.649Z,25.20
2023-05-06T10:52:02.580Z,25.25
2023-05-06T10:53:02.520Z,25.35
2023-05-06T10:54:02.591Z,25.52
2023-05-06T10:55:02.194Z,25.55
2023-05-06T10:56:02.587Z,25.70
2023-05-06T10:57:02.156Z,25.70
2023-05-06T10:58:03.094Z,25.74
2023-05-06T10:59:03.323Z,25.88
2023-05-06T11:00:03.226Z,26.16
2023-05-06T11:01:02.820Z,26.34
2023-05-06T11:02:03.165Z,26.42
2023-05-06T11:03:03.468Z,26.48
2023-05-06T11:04:02.998Z,26.57
2023-05-06T11:05:03.180Z,26.55
2023-05-06T11:06:03.310Z,26.48
2023-05-06T11:07:03.599Z,26.28
2023-05-06T11:08:02.517Z,26.06
2023-05-06T11:09:02.635Z,25.94
2023-05-06T11:10:02.745Z,25.93
2023-05-06T11:11:02.246Z,25.98
2023-05-06T11:12:02.628Z,25.97
2023-05-06T11:13:02.588Z,25.84
2023-05-06T11:14:02.714Z,25.79
2023-05-06T11:15:02.785Z,25.70
2023-05-06T11:16:02.885Z,25.80
2023-05-06T11:17:02.490Z,25.94
2023-05-06T11:18:03.485Z,26.08
2023-05-06T11:19:03.140Z,26.22
2023-05-06T11:20:03.348Z,26.20
2023-05-06T11:21:03.739Z,26.21
2023-05-06T11:22:03.546Z,26.18
2023-05-06T11:23:02.800Z,26.22
2023-05-06T11:24:02.347Z,26.22
2023-05-06T11:25:02.586Z,26.15
2023-05-06T11:26:02.861Z,25.98
2023-05-06T11:27:02.517Z,25.85
2023-05-06T11:28:03.378Z,25.68
2023-05-06T11:29:02.872Z,25.65
2023-05-06T11:30:03.111Z,25.70
2023-05-06T11:31:03.307Z,25.84
2023-05-06T11:32:02.853Z,26.02
2023-05-06T11:36:02.652Z,26.73
2023-05-06T11:37:03.028Z,26.58
2023-05-06T11:38:02.859Z,26.37
2023-05-06T11:39:05.182Z,26.29
2023-05-06T11:40:02.812Z,26.41
2023-05-06T11:41:02.970Z,26.52
2023-05-06T11:42:02.476Z,26.63
2023-05-06T11:43:03.456Z,26.42
2023-05-06T11:44:03.711Z,26.16
2023-05-06T11:45:03.322Z,25.93
2023-05-06T11:46:02.965Z,25.89
2023-05-06T11:47:03.534Z,25.93
2023-05-06T11:48:03.461Z,26.02
2023-05-06T11:49:03.086Z,26.16
2023-05-06T11:50:03.454Z,26.25
2023-05-06T11:51:03.045Z,26.34
2023-05-06T11:52:03.174Z,26.33
2023-05-06T11:53:03.127Z,26.23
2023-05-06T11:54:03.092Z,26.08
2023-05-06T11:55:03.266Z,25.96
2023-05-06T11:56:03.262Z,26.07
2023-05-06T12:45:08.192Z,24.72
2023-05-06T12:46:08.357Z,24.67
2023-05-06T12:47:08.505Z,24.67
2023-05-06T12:48:08.109Z,24.73
2023-05-06T12:49:08.264Z,24.89
2023-05-06T12:49:13.521Z,24.90
2023-05-06T12:50:02.810Z,25.03
2023-05-06T12:51:02.986Z,25.11
2023-05-06T12:52:02.594Z,25.19
2023-05-06T12:53:02.567Z,25.28
2023-05-06T12:54:02.745Z,25.36
2023-05-06T12:55:02.951Z,25.32
2023-05-06T12:56:03.323Z,25.31
2023-05-06T12:57:03.290Z,25.30
2023-05-06T12:58:03.265Z,25.27
2023-05-06T12:59:03.104Z,25.23
2023-05-06T13:00:03.260Z,25.21
2023-05-06T13:01:03.838Z,25.21
2023-05-06T13:02:03.572Z,25.24
2023-05-06T13:03:03.571Z,25.32
2023-05-06T13:04:03.244Z,25.17
2023-05-06T13:05:02.556Z,25.00
2023-05-06T13:06:02.264Z,24.99
2023-05-06T13:07:02.465Z,24.90
2023-05-06T13:08:02.773Z,24.57
2023-05-06T13:09:02.665Z,24.23
2023-05-06T13:10:03.187Z,24.11
2023-05-06T13:11:02.670Z,24.13
2023-05-06T13:12:02.834Z,24.15
2023-05-06T13:13:02.691Z,24.19
2023-05-06T13:14:02.953Z,24.25
2023-05-06T13:15:03.136Z,24.29
2023-05-06T13:16:02.831Z,24.29
2023-05-06T13:17:03.225Z,24.21
2023-05-06T13:18:03.247Z,24.15
2023-05-06T13:19:02.856Z,24.12
2023-05-06T13:20:05.030Z,24.07
2023-05-06T13:21:02.701Z,23.98
2023-05-06T13:22:02.870Z,23.87
2023-05-06T13:23:02.789Z,23.81
2023-05-06T13:24:02.555Z,23.78
2023-05-06T13:25:03.494Z,23.78
2023-05-06T13:26:05.398Z,23.75
2023-05-06T13:27:03.736Z,23.69
2023-05-06T13:28:03.726Z,23.51
2023-05-06T13:29:03.565Z,23.29
2023-05-06T13:30:02.593Z,23.13
2023-05-06T13:31:02.423Z,22.99
2023-05-06T13:32:02.411Z,22.94
2023-05-06T13:33:02.749Z,22.92
2023-05-06T13:34:02.758Z,22.77
2023-05-06T13:35:02.997Z,22.69
2023-05-06T13:36:05.108Z,22.72
2023-05-06T13:37:02.584Z,22.74
2023-05-06T13:38:02.713Z,22.76
2023-05-06T13:39:03.218Z,22.79
2023-05-06T13:40:03.216Z,22.78
2023-05-06T13:41:02.767Z,22.74
2023-05-06T13:42:03.485Z,22.71
2023-05-06T13:43:03.156Z,22.66
2023-05-06T13:44:03.304Z,22.65
2023-05-06T13:45:03.418Z,22.60
2023-05-06T13:46:03.513Z,22.66
2023-05-06T13:47:03.670Z,22.73
2023-05-06T13:48:03.165Z,22.75